Flight Track Log - Related Links

Times and Time Zones

All times are in EDT time to prevent confusion due to time zone crossing. See the SWA3321 flight status page for this flight to view local times or setup timezone preferences in your user account.

Time Position Orientation Groundspeed Altitude Reporting Facility
EDT Latitude Longitude Course Direction KTS MPH feet Rate Location/Type
Tue 02:19:10 PM 36.1183 -115.1542 345° North 160 184 3,700  Level Los Angeles Center
Tue 02:19:55 PM 36.1194 -115.2011 272° West 210 242 5,300 2,164 Climbing Los Angeles Center
Tue 02:20:11 PM 36.1142 -115.2247 255° West 216 249 5,900 2,323 Climbing Los Angeles Center
Tue 02:20:57 PM 36.1058 -115.2828 260° West 238 274 7,700 2,557 Climbing Los Angeles Center
Tue 02:21:12 PM 36.0853 -115.3008 215° Southwest 267 307 8,500 3,097 Climbing Los Angeles Center
Tue 02:21:59 PM 36.0367 -115.3300 206° Southwest 281 323 10,900 3,028 Climbing Los Angeles Center
Tue 02:23:01 PM 36.0144 -115.4214 253° West 280 322 14,000 2,081 Climbing Los Angeles Center
Tue 02:24:00 PM 36.3473 -115.7540 299° West  Level Estimated
Tue 02:24:03 PM 35.9900 -115.5350 255° West 325 374 15,200  Level Los Angeles Center
Tue 02:25:05 PM 35.9600 -115.6728 255° West 376 433 18,600 3,000 Climbing Los Angeles Center
Tue 02:26:07 PM 35.9283 -115.8172 255° West 408 470 21,400 2,419 Climbing Los Angeles Center
Tue 02:27:09 PM 35.9103 -115.9550 261° West 409 471 23,600 2,081 Climbing Los Angeles Center
Tue 02:28:11 PM 35.9731 -116.0583 307° West 404 465 25,700 2,710 Climbing Los Angeles Center
Tue 02:29:13 PM 36.0619 -116.1608 317° Northwest 396 456 29,200 2,081 Climbing Los Angeles Center
Tue 02:30:15 PM 36.1283 -116.2389 316° Northwest 378 435 30,000 387 Climbing Los Angeles Center
Tue 02:31:17 PM 36.2181 -116.3411 317° Northwest 369 425 30,000  Level Los Angeles Center
Tue 02:32:19 PM 36.2925 -116.4272 317° Northwest 368 423 30,000  Level Los Angeles Center
Tue 02:33:21 PM 36.3681 -116.5150 317° Northwest 373 429 30,000  Level Los Angeles Center
Tue 02:34:23 PM 36.4419 -116.6028 316° Northwest 370 426 30,000  Level Los Angeles Center
Tue 02:35:25 PM 36.5156 -116.6878 317° Northwest 363 418 30,000  Level Los Angeles Center
Tue 02:36:27 PM 36.6031 -116.7806 320° Northwest 360 414 30,000  Level Los Angeles Center
Tue 02:37:29 PM 36.6867 -116.8400 330° Northwest 347 399 30,000  Level Los Angeles Center
Tue 02:38:31 PM 36.7708 -116.9033 329° Northwest 341 392 30,000  Level Los Angeles Center
Tue 02:39:33 PM 36.8483 -116.9617 329° Northwest 338 389 30,000  Level Los Angeles Center
Tue 02:40:05 PM 36.8947 -116.9997 327° Northwest 335 386 30,000  Level Oakland Center
Tue 02:41:07 PM 36.9750 -117.0619 328° Northwest 336 387 30,000  Level Oakland Center
Tue 02:42:08 PM 37.0547 -117.1242 328° Northwest 336 387 30,000  Level Oakland Center
Tue 02:43:10 PM 37.1350 -117.1853 329° Northwest 338 389 30,000  Level Oakland Center
Tue 02:44:11 PM 37.2147 -117.2469 328° Northwest 335 386 30,000  Level Oakland Center
Tue 02:45:12 PM 37.2958 -117.3086 329° Northwest 339 390 30,000  Level Oakland Center
Tue 02:46:14 PM 37.3978 -117.3736 333° Northwest 341 392 30,000  Level Oakland Center
Tue 02:47:15 PM 37.4836 -117.4292 333° Northwest 344 396 30,000  Level Oakland Center
Tue 02:48:17 PM 37.5517 -117.5250 312° West 371 427 30,000  Level Oakland Center
Tue 02:49:18 PM 37.6136 -117.6233 309° West 360 414 30,000  Level Oakland Center
Tue 02:50:19 PM 37.6747 -117.7233 308° West 358 412 30,000  Level Oakland Center
Tue 02:51:21 PM 37.7353 -117.8219 308° West 356 410 30,000  Level Oakland Center
Tue 02:52:22 PM 37.7975 -117.9239 308° West 362 417 30,000  Level Oakland Center
Tue 02:53:24 PM 37.8614 -118.0281 308° West 369 425 30,000  Level Oakland Center
Tue 02:54:25 PM 37.9242 -118.1311 308° West 370 426 30,000  Level Oakland Center
Tue 02:55:26 PM 37.9853 -118.2333 307° West 363 418 30,000  Level Oakland Center
Tue 02:56:28 PM 38.0486 -118.3372 308° West 371 427 30,000  Level Oakland Center
Tue 02:57:29 PM 38.1119 -118.4428 307° West 374 430 30,000  Level Oakland Center
Tue 02:58:30 PM 38.1836 -118.5608 308° West 366 421 30,000  Level Oakland Center
Tue 02:59:32 PM 38.2461 -118.6650 307° West 369 425 30,000  Level Oakland Center
Tue 03:00:33 PM 38.3086 -118.7717 307° West 373 429 30,000  Level Oakland Center
Tue 03:01:34 PM 38.3725 -118.8789 307° West 377 434 30,000  Level Oakland Center
Tue 03:02:36 PM 38.4347 -118.9842 307° West 372 428 30,000  Level Oakland Center
Tue 03:03:37 PM 38.4972 -119.0894 307° West 371 427 30,000  Level Oakland Center
Tue 03:04:38 PM 38.5597 -119.1953 307° West 373 429 30,000  Level Oakland Center
Tue 03:05:39 PM 38.6197 -119.2989 307° West 365 420 30,000 -195 Level Oakland Center
Tue 03:06:41 PM 38.6586 -119.4297 291° West 397 457 29,600 -878 Descending Oakland Center
Tue 03:07:42 PM 38.6933 -119.5844 286° West 376 433 28,200 -1,180 Descending Oakland Center
Tue 03:08:43 PM 38.7203 -119.7072 286° West 361 415 27,200 -984 Descending Oakland Center
Tue 03:09:44 PM 38.7467 -119.8322 285° West 359 413 26,200 -976 Descending Oakland Center
Tue 03:10:46 PM 38.7756 -119.9539 287° West 358 412 25,200 -976 Descending Oakland Center
Tue 03:11:47 PM 38.8003 -120.0731 285° West 352 405 24,200 -934 Descending Oakland Center
Tue 03:12:48 PM 38.8236 -120.1864 285° West 338 389 23,300 -1,024 Descending Oakland Center
Tue 03:13:50 PM 38.8469 -120.3003 285° West 333 383 22,100 -1,512 Descending Oakland Center
Tue 03:14:51 PM 38.8708 -120.4114 285° West 326 375 20,200 -1,574 Descending Oakland Center
Tue 03:15:52 PM 38.8944 -120.5203 286° West 320 368 18,900 -1,122 Descending Oakland Center
Tue 03:16:54 PM 38.9169 -120.6336 284° West 327 376 17,900 -1,512 Descending Oakland Center
Tue 03:17:55 PM 38.9456 -120.7694 285° West 330 380 15,800 -1,967 Descending Oakland Center
Tue 03:18:56 PM 38.9694 -120.8869 285° West 337 388 13,900 -2,164 Descending Oakland Center
Tue 03:19:57 PM 38.9883 -121.0036 282° West 344 396 11,400 -1,805 Descending Oakland Center
Tue 03:20:59 PM 38.9603 -121.1264 254° West 361 415 10,200 -1,169 Descending Oakland Center
Tue 03:21:14 PM 38.9500 -121.1667 252° West 341 392 9,900 -1,440 Descending Northern Cal TRACON
Tue 03:22:14 PM 38.9167 -121.2667 247° West 321 369 8,400 -1,450 Descending Northern Cal TRACON
Tue 03:23:14 PM 38.9000 -121.3833 260° West 321 369 7,000 -1,150 Descending Northern Cal TRACON
Tue 03:24:14 PM 38.8333 -121.4667 224° Southwest 296 341 6,100 -500 Descending Northern Cal TRACON
Tue 03:25:14 PM 38.7833 -121.5500 232° Southwest 295 339 6,000 -250 Descending Northern Cal TRACON
Tue 03:26:14 PM 38.7333 -121.6167 226° Southwest 283 326 5,600 -900 Descending Northern Cal TRACON
Tue 03:27:14 PM 38.6833 -121.6833 226° Southwest 261 300 4,200 -1,316 Descending Northern Cal TRACON
Tue 03:28:08 PM 38.6283 -121.6944 189° South 250 288 3,100 -1,148 Descending Oakland Center
Tue 03:29:09 PM 38.5956 -121.6417 128° Southeast 221 254 2,000 -934 Descending Oakland Center
Tue 03:30:10 PM 38.6217 -121.6028 49° Northeast 154 177 1,200 -689 Descending Oakland Center
Tue 03:31:11 PM 38.6569 -121.6000 North 129 148 600 -537 Descending Oakland Center
Tue 03:32:13 PM 38.6939 -121.6028 357° North 125 144 100 -484 Descending Oakland Center

Login

Don't have an account? Register now (free) for customized features, flight alerts, and more!